Honolulu, HI

8:19 PM HST on March 29, 2015 (GMT -1000)
Pacific Heights | | Change Station
CLOSE
Current Station
Personal Weather Station
Location: Honolulu, HI
Elevation: 528 ft
Nearby Weather Stations
Active Advisory: High Surf Advisory

Elev 528 ft 21.33 °N, 157.84 °W | Updated 22 seconds ago

Scattered Clouds
Scattered Clouds
72.1 °F
Feels Like 72 °F
N
6.9
Wind Variable Wind from NE
Gusts 7.0 mph

Today
High -- | Low -- °F
--% Chance of Precip.
Yesterday
High -- | Low -- °F
Precip. -- in
6:27 AM 6:45 PM
Waxing Gibbous, 77% visible
Pressure 30.14 in
Visibility 10.0 miles
Clouds Few 3200 ft
Scattered Clouds 6500 ft
Heat Index 72 °F
Dew Point 66 °F
Humidity 80%
Rainfall 0.23 in
Snow Depth Not available.
UV 0 out of 12
Pollen Not available.
Air Quality Not available.
Flu Activity Not available.
METAR PHNL 300553Z 04008KT 10SM FEW032 SCT065 22/19 A3014 RMK AO2 SLP207 60000 T02220189 10261 20222 53018 $

More Conditions Fewer Conditions

Pressure 30.14 in
Visibility 10.0 miles
Clouds Few 3200 ft
Scattered Clouds 6500 ft
Heat Index 72 °F
Dew Point 66 °F
Humidity 80%
Rainfall 0.23 in
Snow Depth Not available.
UV 0 out of 12
Pollen Not available.
Air Quality Not available.
Flu Activity Not available.
METAR PHNL 300553Z 04008KT 10SM FEW032 SCT065 22/19 A3014 RMK AO2 SLP207 60000 T02220189 10261 20222 53018 $

More Conditions Fewer Conditions

10-Day Weather Forecast

Almanac

Astronomy

Mar. 29, 2015 Rise Set
Actual Time
Civil Twilight
Nautical Twilight
Astronomical Twilight
Moon
Length of Visible Light
Length of Day
Tomorrow will be .
, % of the Moon is Illuminated

Today's Extremes

State Highs State Lows

Community

WunderPhotos

Upload Photos

1,809,437 photos uploaded!

WunderBlogs® & News

Nearby

Air Quality

  Air Quality AQ Index Pollutant
Not available.

Snow Depth

Station Depth Elevation

Earthquake Activity

City Distance Mag. Time & Date
Minimum magnitude displayed is 2.5.

Coastal Water Temperatures

Place Temperature

Stations

Nearby Weather Stations

Station Location Temp. Windchill Dew Point Humidity Wind Precip. Elev Updated Type
                   
High Surf Advisory
Statement as of 3:34 PM HST on March 29, 2015

... High surf advisory remains in effect until 6 am HST Monday...

A high surf advisory remains in effect until 6 am HST Monday.

* Surf... 12 to 16 feet on north and west facing shores of Kauai
and Niihau... and 10 to 15 feet on north facing shores of
Oahu... Molokai and Maui.

* Timing... through tonight.

* Impacts... moderate... expect strong breaking waves... shore
break... and strong longshore and rip currents making swimming
difficult and dangerous.

Precautionary/preparedness actions...

Beachgoers... swimmers... and surfers should heed all advice given
by ocean safety officials and exercise caution.



Birchard